sensor_id;sensor_type;location;lat;lon;timestamp;P1;durP1;ratioP1;P2;durP2;ratioP2
82473;SDS011;72350;53.232;6.556;2023-10-09T00:02:08;26.40;;;12.85;;
82473;SDS011;72350;53.232;6.556;2023-10-09T00:04:37;11.95;;;4.78;;
82473;SDS011;72350;53.232;6.556;2023-10-09T00:07:09;9.35;;;4.80;;
82473;SDS011;72350;53.232;6.556;2023-10-09T00:09:38;11.60;;;5.10;;
82473;SDS011;72350;53.232;6.556;2023-10-09T00:12:15;11.52;;;6.68;;
82473;SDS011;72350;53.232;6.556;2023-10-09T00:14:49;7.40;;;4.32;;
82473;SDS011;72350;53.232;6.556;2023-10-09T00:17:23;7.30;;;3.88;;
82473;SDS011;72350;53.232;6.556;2023-10-09T00:19:57;7.95;;;4.28;;
82473;SDS011;72350;53.232;6.556;2023-10-09T00:22:34;13.15;;;6.32;;
82473;SDS011;72350;53.232;6.556;2023-10-09T00:25:09;8.77;;;4.80;;
82473;SDS011;72350;53.232;6.556;2023-10-09T00:27:40;11.25;;;4.60;;
82473;SDS011;72350;53.232;6.556;2023-10-09T00:30:13;11.82;;;5.43;;
82473;SDS011;72350;53.232;6.556;2023-10-09T00:32:45;21.17;;;10.38;;
82473;SDS011;72350;53.232;6.556;2023-10-09T00:35:26;9.85;;;5.57;;
82473;SDS011;72350;53.232;6.556;2023-10-09T00:38:13;12.43;;;6.53;;
82473;SDS011;72350;53.232;6.556;2023-10-09T00:40:50;16.05;;;5.28;;
82473;SDS011;72350;53.232;6.556;2023-10-09T00:43:32;10.07;;;4.25;;
82473;SDS011;72350;53.232;6.556;2023-10-09T00:46:02;10.38;;;6.10;;
82473;SDS011;72350;53.232;6.556;2023-10-09T00:48:35;11.38;;;6.88;;
82473;SDS011;72350;53.232;6.556;2023-10-09T00:51:07;14.47;;;6.00;;
82473;SDS011;72350;53.232;6.556;2023-10-09T00:53:45;21.85;;;7.22;;
82473;SDS011;72350;53.232;6.556;2023-10-09T00:56:17;8.63;;;5.83;;
82473;SDS011;72350;53.232;6.556;2023-10-09T00:58:56;26.02;;;13.65;;
82473;SDS011;72350;53.232;6.556;2023-10-09T01:01:35;15.30;;;6.82;;
82473;SDS011;72350;53.232;6.556;2023-10-09T01:04:06;12.13;;;6.00;;
82473;SDS011;72350;53.232;6.556;2023-10-09T01:06:37;10.55;;;6.15;;
82473;SDS011;72350;53.232;6.556;2023-10-09T01:09:11;16.58;;;6.90;;
82473;SDS011;72350;53.232;6.556;2023-10-09T01:11:41;15.93;;;5.93;;
82473;SDS011;72350;53.232;6.556;2023-10-09T01:14:25;13.45;;;6.63;;
82473;SDS011;72350;53.232;6.556;2023-10-09T01:16:53;15.20;;;7.00;;
82473;SDS011;72350;53.232;6.556;2023-10-09T01:19:21;16.02;;;7.32;;
82473;SDS011;72350;53.232;6.556;2023-10-09T01:21:51;15.80;;;7.32;;
82473;SDS011;72350;53.232;6.556;2023-10-09T01:24:20;14.00;;;7.10;;
82473;SDS011;72350;53.232;6.556;2023-10-09T01:26:53;17.13;;;8.02;;
82473;SDS011;72350;53.232;6.556;2023-10-09T01:29:25;13.90;;;7.97;;
82473;SDS011;72350;53.232;6.556;2023-10-09T01:31:54;19.00;;;9.68;;
82473;SDS011;72350;53.232;6.556;2023-10-09T01:34:28;20.40;;;10.63;;
82473;SDS011;72350;53.232;6.556;2023-10-09T01:37:09;22.65;;;10.15;;
82473;SDS011;72350;53.232;6.556;2023-10-09T01:39:47;25.60;;;9.82;;
82473;SDS011;72350;53.232;6.556;2023-10-09T01:42:15;26.27;;;10.88;;
82473;SDS011;72350;53.232;6.556;2023-10-09T01:44:51;27.98;;;11.20;;
82473;SDS011;72350;53.232;6.556;2023-10-09T01:47:20;25.83;;;11.45;;
82473;SDS011;72350;53.232;6.556;2023-10-09T01:49:48;21.35;;;9.75;;
82473;SDS011;72350;53.232;6.556;2023-10-09T01:52:16;23.02;;;11.80;;
82473;SDS011;72350;53.232;6.556;2023-10-09T01:54:45;25.05;;;11.40;;
82473;SDS011;72350;53.232;6.556;2023-10-09T01:57:16;22.75;;;11.45;;
82473;SDS011;72350;53.232;6.556;2023-10-09T01:59:49;25.70;;;11.80;;
82473;SDS011;72350;53.232;6.556;2023-10-09T02:02:20;33.15;;;16.10;;
82473;SDS011;72350;53.232;6.556;2023-10-09T02:05:00;26.40;;;13.13;;
82473;SDS011;72350;53.232;6.556;2023-10-09T02:07:37;31.58;;;13.05;;
82473;SDS011;72350;53.232;6.556;2023-10-09T02:10:12;27.23;;;12.50;;
82473;SDS011;72350;53.232;6.556;2023-10-09T02:12:52;27.50;;;13.77;;
82473;SDS011;72350;53.232;6.556;2023-10-09T02:15:25;25.70;;;13.23;;
82473;SDS011;72350;53.232;6.556;2023-10-09T02:18:19;26.65;;;14.02;;
82473;SDS011;72350;53.232;6.556;2023-10-09T02:21:06;26.92;;;13.93;;
82473;SDS011;72350;53.232;6.556;2023-10-09T02:23:41;23.98;;;13.15;;
82473;SDS011;72350;53.232;6.556;2023-10-09T02:26:13;27.90;;;15.10;;
82473;SDS011;72350;53.232;6.556;2023-10-09T02:28:46;24.58;;;13.40;;
82473;SDS011;72350;53.232;6.556;2023-10-09T02:31:20;38.28;;;14.85;;
82473;SDS011;72350;53.232;6.556;2023-10-09T02:33:51;30.40;;;14.48;;
82473;SDS011;72350;53.232;6.556;2023-10-09T02:36:21;28.73;;;15.32;;
82473;SDS011;72350;53.232;6.556;2023-10-09T02:38:50;29.38;;;14.98;;
82473;SDS011;72350;53.232;6.556;2023-10-09T02:41:22;26.90;;;15.70;;
82473;SDS011;72350;53.232;6.556;2023-10-09T02:43:54;28.33;;;15.65;;
82473;SDS011;72350;53.232;6.556;2023-10-09T02:46:23;33.40;;;16.00;;
82473;SDS011;72350;53.232;6.556;2023-10-09T02:48:58;29.83;;;16.35;;
82473;SDS011;72350;53.232;6.556;2023-10-09T02:51:30;36.25;;;16.50;;
82473;SDS011;72350;53.232;6.556;2023-10-09T02:54:00;32.58;;;16.45;;
82473;SDS011;72350;53.232;6.556;2023-10-09T02:56:45;32.75;;;17.90;;
82473;SDS011;72350;53.232;6.556;2023-10-09T02:59:21;30.65;;;17.02;;
82473;SDS011;72350;53.232;6.556;2023-10-09T03:01:49;34.58;;;17.98;;
82473;SDS011;72350;53.232;6.556;2023-10-09T03:04:20;35.70;;;19.67;;
82473;SDS011;72350;53.232;6.556;2023-10-09T03:06:51;33.38;;;18.02;;
82473;SDS011;72350;53.232;6.556;2023-10-09T03:09:20;36.85;;;19.48;;
82473;SDS011;72350;53.232;6.556;2023-10-09T03:11:55;31.40;;;18.65;;
82473;SDS011;72350;53.232;6.556;2023-10-09T03:14:30;35.70;;;20.27;;
82473;SDS011;72350;53.232;6.556;2023-10-09T03:16:58;33.03;;;18.58;;
82473;SDS011;72350;53.232;6.556;2023-10-09T03:19:28;36.50;;;20.73;;
82473;SDS011;72350;53.232;6.556;2023-10-09T03:21:57;36.80;;;19.90;;
82473;SDS011;72350;53.232;6.556;2023-10-09T03:24:25;34.75;;;21.23;;
82473;SDS011;72350;53.232;6.556;2023-10-09T03:26:54;38.83;;;20.60;;
82473;SDS011;72350;53.232;6.556;2023-10-09T03:29:23;35.97;;;20.83;;
82473;SDS011;72350;53.232;6.556;2023-10-09T03:31:54;35.53;;;19.98;;
82473;SDS011;72350;53.232;6.556;2023-10-09T03:34:23;33.08;;;19.52;;
82473;SDS011;72350;53.232;6.556;2023-10-09T03:36:52;35.55;;;20.42;;
82473;SDS011;72350;53.232;6.556;2023-10-09T03:39:30;40.53;;;21.33;;
82473;SDS011;72350;53.232;6.556;2023-10-09T03:42:05;40.47;;;22.80;;
82473;SDS011;72350;53.232;6.556;2023-10-09T03:44:38;36.83;;;21.30;;
82473;SDS011;72350;53.232;6.556;2023-10-09T03:47:09;36.05;;;19.63;;
82473;SDS011;72350;53.232;6.556;2023-10-09T03:49:38;37.67;;;22.60;;
82473;SDS011;72350;53.232;6.556;2023-10-09T03:52:07;36.95;;;22.92;;
82473;SDS011;72350;53.232;6.556;2023-10-09T03:54:36;41.17;;;24.38;;
82473;SDS011;72350;53.232;6.556;2023-10-09T03:57:04;40.78;;;23.30;;
82473;SDS011;72350;53.232;6.556;2023-10-09T03:59:32;39.05;;;23.45;;
82473;SDS011;72350;53.232;6.556;2023-10-09T04:02:01;37.28;;;22.42;;
82473;SDS011;72350;53.232;6.556;2023-10-09T04:04:32;41.67;;;24.50;;
82473;SDS011;72350;53.232;6.556;2023-10-09T04:07:00;36.88;;;21.00;;
82473;SDS011;72350;53.232;6.556;2023-10-09T04:09:30;43.58;;;23.02;;
82473;SDS011;72350;53.232;6.556;2023-10-09T04:12:06;38.80;;;22.00;;
82473;SDS011;72350;53.232;6.556;2023-10-09T04:14:46;37.72;;;22.33;;
82473;SDS011;72350;53.232;6.556;2023-10-09T04:17:21;32.30;;;20.30;;
82473;SDS011;72350;53.232;6.556;2023-10-09T04:20:01;30.90;;;19.83;;
82473;SDS011;72350;53.232;6.556;2023-10-09T04:23:13;36.03;;;21.65;;
82473;SDS011;72350;53.232;6.556;2023-10-09T04:25:44;32.97;;;19.48;;
82473;SDS011;72350;53.232;6.556;2023-10-09T04:28:17;36.85;;;19.77;;
82473;SDS011;72350;53.232;6.556;2023-10-09T04:30:48;33.40;;;18.55;;
82473;SDS011;72350;53.232;6.556;2023-10-09T04:33:22;31.10;;;18.45;;
82473;SDS011;72350;53.232;6.556;2023-10-09T04:36:07;37.15;;;19.58;;
82473;SDS011;72350;53.232;6.556;2023-10-09T04:38:43;35.08;;;21.10;;
82473;SDS011;72350;53.232;6.556;2023-10-09T04:41:23;41.22;;;20.48;;
82473;SDS011;72350;53.232;6.556;2023-10-09T04:43:59;30.65;;;17.83;;
82473;SDS011;72350;53.232;6.556;2023-10-09T04:46:31;32.08;;;18.38;;
82473;SDS011;72350;53.232;6.556;2023-10-09T04:49:10;37.22;;;19.77;;
82473;SDS011;72350;53.232;6.556;2023-10-09T04:51:53;32.75;;;18.13;;
82473;SDS011;72350;53.232;6.556;2023-10-09T04:54:44;31.60;;;17.63;;
82473;SDS011;72350;53.232;6.556;2023-10-09T04:57:32;35.90;;;19.52;;
82473;SDS011;72350;53.232;6.556;2023-10-09T05:00:05;29.83;;;18.45;;
82473;SDS011;72350;53.232;6.556;2023-10-09T05:02:49;33.28;;;18.05;;
82473;SDS011;72350;53.232;6.556;2023-10-09T05:05:21;28.88;;;16.38;;
82473;SDS011;72350;53.232;6.556;2023-10-09T05:08:04;29.70;;;17.83;;
82473;SDS011;72350;53.232;6.556;2023-10-09T05:10:45;31.73;;;18.13;;
82473;SDS011;72350;53.232;6.556;2023-10-09T05:13:41;34.38;;;18.88;;
82473;SDS011;72350;53.232;6.556;2023-10-09T05:16:10;29.73;;;17.60;;
82473;SDS011;72350;53.232;6.556;2023-10-09T05:18:42;28.83;;;16.83;;
82473;SDS011;72350;53.232;6.556;2023-10-09T05:21:11;31.38;;;16.33;;
82473;SDS011;72350;53.232;6.556;2023-10-09T05:24:03;32.55;;;16.20;;
82473;SDS011;72350;53.232;6.556;2023-10-09T05:26:46;33.13;;;15.63;;
82473;SDS011;72350;53.232;6.556;2023-10-09T05:32:25;23.67;;;13.93;;
82473;SDS011;72350;53.232;6.556;2023-10-09T05:35:01;30.40;;;14.77;;
82473;SDS011;72350;53.232;6.556;2023-10-09T05:37:33;43.75;;;22.15;;
82473;SDS011;72350;53.232;6.556;2023-10-09T05:40:02;28.70;;;14.82;;
82473;SDS011;72350;53.232;6.556;2023-10-09T05:42:49;24.95;;;15.15;;
82473;SDS011;72350;53.232;6.556;2023-10-09T05:45:27;23.13;;;14.10;;
82473;SDS011;72350;53.232;6.556;2023-10-09T05:48:30;30.02;;;15.55;;
82473;SDS011;72350;53.232;6.556;2023-10-09T05:51:26;32.80;;;17.73;;
82473;SDS011;72350;53.232;6.556;2023-10-09T05:54:10;31.08;;;14.35;;
82473;SDS011;72350;53.232;6.556;2023-10-09T05:57:06;41.22;;;21.58;;
82473;SDS011;72350;53.232;6.556;2023-10-09T05:59:51;44.70;;;24.55;;
82473;SDS011;72350;53.232;6.556;2023-10-09T06:02:39;31.00;;;15.88;;
82473;SDS011;72350;53.232;6.556;2023-10-09T06:05:28;30.58;;;14.95;;
82473;SDS011;72350;53.232;6.556;2023-10-09T06:08:09;36.00;;;20.17;;
82473;SDS011;72350;53.232;6.556;2023-10-09T06:10:39;32.40;;;16.90;;
82473;SDS011;72350;53.232;6.556;2023-10-09T06:13:08;35.45;;;17.42;;
82473;SDS011;72350;53.232;6.556;2023-10-09T06:15:50;30.25;;;15.35;;
82473;SDS011;72350;53.232;6.556;2023-10-09T06:18:36;28.83;;;15.88;;
82473;SDS011;72350;53.232;6.556;2023-10-09T06:21:10;62.13;;;30.60;;
82473;SDS011;72350;53.232;6.556;2023-10-09T06:24:08;43.00;;;25.08;;
82473;SDS011;72350;53.232;6.556;2023-10-09T06:26:36;32.00;;;15.45;;
82473;SDS011;72350;53.232;6.556;2023-10-09T06:29:04;43.03;;;21.98;;
82473;SDS011;72350;53.232;6.556;2023-10-09T06:31:41;41.08;;;22.75;;
82473;SDS011;72350;53.232;6.556;2023-10-09T06:34:28;28.00;;;13.75;;
82473;SDS011;72350;53.232;6.556;2023-10-09T06:37:02;53.15;;;29.20;;
82473;SDS011;72350;53.232;6.556;2023-10-09T06:39:35;34.95;;;18.63;;
82473;SDS011;72350;53.232;6.556;2023-10-09T06:42:37;57.83;;;31.55;;
82473;SDS011;72350;53.232;6.556;2023-10-09T06:45:19;34.03;;;16.42;;
82473;SDS011;72350;53.232;6.556;2023-10-09T06:47:49;31.90;;;16.77;;
82473;SDS011;72350;53.232;6.556;2023-10-09T06:50:23;37.42;;;22.45;;
82473;SDS011;72350;53.232;6.556;2023-10-09T06:52:52;77.30;;;43.60;;
82473;SDS011;72350;53.232;6.556;2023-10-09T06:55:41;28.88;;;15.38;;
82473;SDS011;72350;53.232;6.556;2023-10-09T06:58:17;37.20;;;16.58;;
82473;SDS011;72350;53.232;6.556;2023-10-09T07:00:49;28.95;;;15.13;;
82473;SDS011;72350;53.232;6.556;2023-10-09T07:03:41;40.00;;;22.40;;
82473;SDS011;72350;53.232;6.556;2023-10-09T07:06:19;27.90;;;15.00;;
82473;SDS011;72350;53.232;6.556;2023-10-09T07:09:07;56.50;;;27.63;;
82473;SDS011;72350;53.232;6.556;2023-10-09T07:11:47;37.92;;;21.23;;
82473;SDS011;72350;53.232;6.556;2023-10-09T07:14:24;34.20;;;16.92;;
82473;SDS011;72350;53.232;6.556;2023-10-09T07:17:14;24.67;;;11.25;;
82473;SDS011;72350;53.232;6.556;2023-10-09T07:20:11;62.22;;;33.28;;
82473;SDS011;72350;53.232;6.556;2023-10-09T07:23:03;36.17;;;21.00;;
82473;SDS011;72350;53.232;6.556;2023-10-09T07:25:44;30.10;;;13.05;;
82473;SDS011;72350;53.232;6.556;2023-10-09T07:28:26;25.92;;;14.43;;
82473;SDS011;72350;53.232;6.556;2023-10-09T07:31:04;38.42;;;18.80;;
82473;SDS011;72350;53.232;6.556;2023-10-09T07:33:36;37.35;;;20.83;;
82473;SDS011;72350;53.232;6.556;2023-10-09T07:36:29;32.45;;;16.48;;
82473;SDS011;72350;53.232;6.556;2023-10-09T07:39:02;22.00;;;10.70;;
82473;SDS011;72350;53.232;6.556;2023-10-09T07:41:40;31.95;;;15.93;;
82473;SDS011;72350;53.232;6.556;2023-10-09T07:44:22;24.70;;;12.85;;
82473;SDS011;72350;53.232;6.556;2023-10-09T07:47:04;60.47;;;35.72;;
82473;SDS011;72350;53.232;6.556;2023-10-09T07:49:45;34.80;;;21.30;;
82473;SDS011;72350;53.232;6.556;2023-10-09T07:52:22;32.30;;;16.80;;
82473;SDS011;72350;53.232;6.556;2023-10-09T07:54:50;27.55;;;13.68;;
82473;SDS011;72350;53.232;6.556;2023-10-09T07:57:21;31.65;;;13.82;;
82473;SDS011;72350;53.232;6.556;2023-10-09T07:59:56;26.50;;;12.82;;
82473;SDS011;72350;53.232;6.556;2023-10-09T08:02:38;21.45;;;11.23;;
82473;SDS011;72350;53.232;6.556;2023-10-09T08:05:06;28.65;;;14.43;;
82473;SDS011;72350;53.232;6.556;2023-10-09T08:07:46;29.65;;;17.35;;
82473;SDS011;72350;53.232;6.556;2023-10-09T08:10:48;25.48;;;13.10;;
82473;SDS011;72350;53.232;6.556;2023-10-09T08:13:33;30.33;;;16.45;;
82473;SDS011;72350;53.232;6.556;2023-10-09T08:16:15;27.85;;;16.02;;
82473;SDS011;72350;53.232;6.556;2023-10-09T08:18:53;31.30;;;14.90;;
82473;SDS011;72350;53.232;6.556;2023-10-09T08:21:24;40.58;;;22.20;;
82473;SDS011;72350;53.232;6.556;2023-10-09T08:24:07;24.83;;;12.30;;
82473;SDS011;72350;53.232;6.556;2023-10-09T08:26:57;22.08;;;11.45;;
82473;SDS011;72350;53.232;6.556;2023-10-09T08:29:39;25.92;;;12.80;;
82473;SDS011;72350;53.232;6.556;2023-10-09T08:32:13;22.70;;;11.30;;
82473;SDS011;72350;53.232;6.556;2023-10-09T08:35:07;23.98;;;11.30;;
82473;SDS011;72350;53.232;6.556;2023-10-09T08:37:56;28.30;;;13.55;;
82473;SDS011;72350;53.232;6.556;2023-10-09T08:40:30;21.42;;;11.15;;
82473;SDS011;72350;53.232;6.556;2023-10-09T08:43:01;24.02;;;12.52;;
82473;SDS011;72350;53.232;6.556;2023-10-09T08:45:37;29.75;;;14.77;;
82473;SDS011;72350;53.232;6.556;2023-10-09T08:48:07;27.33;;;13.60;;
82473;SDS011;72350;53.232;6.556;2023-10-09T08:50:39;33.58;;;15.55;;
82473;SDS011;72350;53.232;6.556;2023-10-09T08:53:09;28.58;;;13.80;;
82473;SDS011;72350;53.232;6.556;2023-10-09T08:55:39;28.17;;;12.15;;
82473;SDS011;72350;53.232;6.556;2023-10-09T08:58:08;23.40;;;10.48;;
82473;SDS011;72350;53.232;6.556;2023-10-09T09:00:44;29.70;;;13.27;;
82473;SDS011;72350;53.232;6.556;2023-10-09T09:03:14;26.73;;;9.80;;
82473;SDS011;72350;53.232;6.556;2023-10-09T09:05:45;26.17;;;13.30;;
82473;SDS011;72350;53.232;6.556;2023-10-09T09:10:57;24.52;;;10.55;;
82473;SDS011;72350;53.232;6.556;2023-10-09T09:13:35;26.52;;;14.93;;
82473;SDS011;72350;53.232;6.556;2023-10-09T09:16:03;26.02;;;10.55;;
82473;SDS011;72350;53.232;6.556;2023-10-09T09:18:31;18.55;;;8.50;;
82473;SDS011;72350;53.232;6.556;2023-10-09T09:21:16;24.63;;;10.38;;
82473;SDS011;72350;53.232;6.556;2023-10-09T09:23:59;22.05;;;11.82;;
82473;SDS011;72350;53.232;6.556;2023-10-09T09:29:11;27.88;;;12.63;;
82473;SDS011;72350;53.232;6.556;2023-10-09T09:31:51;24.08;;;12.52;;
82473;SDS011;72350;53.232;6.556;2023-10-09T09:34:20;16.30;;;8.48;;
82473;SDS011;72350;53.232;6.556;2023-10-09T09:36:53;23.33;;;10.37;;
82473;SDS011;72350;53.232;6.556;2023-10-09T09:39:23;26.90;;;10.05;;
82473;SDS011;72350;53.232;6.556;2023-10-09T09:42:05;20.65;;;9.20;;
82473;SDS011;72350;53.232;6.556;2023-10-09T09:44:40;21.00;;;9.32;;
82473;SDS011;72350;53.232;6.556;2023-10-09T09:47:12;19.27;;;9.20;;
82473;SDS011;72350;53.232;6.556;2023-10-09T09:49:50;19.08;;;9.65;;
82473;SDS011;72350;53.232;6.556;2023-10-09T09:52:29;24.08;;;11.52;;
82473;SDS011;72350;53.232;6.556;2023-10-09T09:55:06;24.95;;;9.07;;
82473;SDS011;72350;53.232;6.556;2023-10-09T09:57:42;32.05;;;17.80;;
82473;SDS011;72350;53.232;6.556;2023-10-09T10:00:12;20.45;;;9.45;;
82473;SDS011;72350;53.232;6.556;2023-10-09T10:02:56;21.55;;;11.43;;
82473;SDS011;72350;53.232;6.556;2023-10-09T10:05:27;24.67;;;10.35;;
82473;SDS011;72350;53.232;6.556;2023-10-09T10:07:58;24.58;;;10.23;;
82473;SDS011;72350;53.232;6.556;2023-10-09T10:10:33;17.90;;;9.30;;
82473;SDS011;72350;53.232;6.556;2023-10-09T10:13:05;22.20;;;9.88;;
82473;SDS011;72350;53.232;6.556;2023-10-09T10:16:00;27.63;;;13.65;;
82473;SDS011;72350;53.232;6.556;2023-10-09T10:18:51;21.27;;;11.73;;
82473;SDS011;72350;53.232;6.556;2023-10-09T10:21:22;24.60;;;10.85;;
82473;SDS011;72350;53.232;6.556;2023-10-09T10:24:04;25.05;;;12.27;;
82473;SDS011;72350;53.232;6.556;2023-10-09T10:32:58;28.08;;;12.52;;
82473;SDS011;72350;53.232;6.556;2023-10-09T10:35:36;14.55;;;6.53;;
82473;SDS011;72350;53.232;6.556;2023-10-09T10:38:26;25.75;;;9.25;;
82473;SDS011;72350;53.232;6.556;2023-10-09T10:41:07;16.85;;;8.93;;
82473;SDS011;72350;53.232;6.556;2023-10-09T10:43:48;23.38;;;9.25;;
82473;SDS011;72350;53.232;6.556;2023-10-09T10:46:26;20.48;;;9.77;;
82473;SDS011;72350;53.232;6.556;2023-10-09T10:49:07;25.52;;;11.40;;
82473;SDS011;72350;53.232;6.556;2023-10-09T10:51:47;20.70;;;8.35;;
82473;SDS011;72350;53.232;6.556;2023-10-09T10:54:27;22.15;;;9.38;;
82473;SDS011;72350;53.232;6.556;2023-10-09T10:57:16;24.58;;;9.27;;
82473;SDS011;72350;53.232;6.556;2023-10-09T10:59:56;27.25;;;11.82;;
82473;SDS011;72350;53.232;6.556;2023-10-09T11:03:00;19.77;;;8.40;;
82473;SDS011;72350;53.232;6.556;2023-10-09T11:05:42;20.75;;;8.45;;
82473;SDS011;72350;53.232;6.556;2023-10-09T11:08:18;17.10;;;8.40;;
82473;SDS011;72350;53.232;6.556;2023-10-09T11:10:50;21.90;;;8.70;;
82473;SDS011;72350;53.232;6.556;2023-10-09T11:13:21;22.77;;;8.90;;
82473;SDS011;72350;53.232;6.556;2023-10-09T11:15:59;17.63;;;7.78;;
82473;SDS011;72350;53.232;6.556;2023-10-09T11:18:44;23.83;;;10.45;;
82473;SDS011;72350;53.232;6.556;2023-10-09T11:21:15;15.43;;;6.75;;
82473;SDS011;72350;53.232;6.556;2023-10-09T11:23:58;17.67;;;7.80;;
82473;SDS011;72350;53.232;6.556;2023-10-09T11:26:47;20.85;;;6.53;;
82473;SDS011;72350;53.232;6.556;2023-10-09T11:29:21;16.90;;;6.57;;
82473;SDS011;72350;53.232;6.556;2023-10-09T11:32:07;23.17;;;8.98;;
82473;SDS011;72350;53.232;6.556;2023-10-09T11:34:44;16.15;;;6.22;;
82473;SDS011;72350;53.232;6.556;2023-10-09T11:37:20;19.25;;;7.95;;
82473;SDS011;72350;53.232;6.556;2023-10-09T11:40:06;13.85;;;6.13;;
82473;SDS011;72350;53.232;6.556;2023-10-09T11:42:50;18.35;;;6.20;;
82473;SDS011;72350;53.232;6.556;2023-10-09T11:45:24;14.60;;;5.53;;
82473;SDS011;72350;53.232;6.556;2023-10-09T11:47:55;17.75;;;5.90;;
82473;SDS011;72350;53.232;6.556;2023-10-09T11:50:40;15.57;;;4.78;;
82473;SDS011;72350;53.232;6.556;2023-10-09T11:53:11;16.65;;;6.82;;
82473;SDS011;72350;53.232;6.556;2023-10-09T11:56:01;13.95;;;5.90;;
82473;SDS011;72350;53.232;6.556;2023-10-09T11:58:30;14.88;;;4.72;;
82473;SDS011;72350;53.232;6.556;2023-10-09T12:00:58;14.68;;;5.00;;
82473;SDS011;72350;53.232;6.556;2023-10-09T12:03:32;11.82;;;4.60;;
82473;SDS011;72350;53.232;6.556;2023-10-09T12:06:01;22.67;;;7.53;;
82473;SDS011;72350;53.232;6.556;2023-10-09T12:08:34;24.27;;;7.13;;
82473;SDS011;72350;53.232;6.556;2023-10-09T12:11:03;16.95;;;5.93;;
82473;SDS011;72350;53.232;6.556;2023-10-09T12:13:35;12.55;;;5.20;;
82473;SDS011;72350;53.232;6.556;2023-10-09T12:16:04;15.77;;;6.07;;
82473;SDS011;72350;53.232;6.556;2023-10-09T12:18:35;16.63;;;5.43;;
82473;SDS011;72350;53.232;6.556;2023-10-09T12:21:05;17.02;;;5.28;;
82473;SDS011;72350;53.232;6.556;2023-10-09T12:23:35;10.23;;;4.65;;
82473;SDS011;72350;53.232;6.556;2023-10-09T12:26:03;17.20;;;7.13;;
82473;SDS011;72350;53.232;6.556;2023-10-09T12:28:31;8.27;;;4.72;;
82473;SDS011;72350;53.232;6.556;2023-10-09T12:31:01;10.25;;;4.07;;
82473;SDS011;72350;53.232;6.556;2023-10-09T12:33:29;14.07;;;5.03;;
82473;SDS011;72350;53.232;6.556;2023-10-09T12:35:57;7.60;;;4.07;;
82473;SDS011;72350;53.232;6.556;2023-10-09T12:38:26;15.80;;;4.80;;
82473;SDS011;72350;53.232;6.556;2023-10-09T12:41:03;10.82;;;5.03;;
82473;SDS011;72350;53.232;6.556;2023-10-09T12:43:35;10.30;;;4.82;;
82473;SDS011;72350;53.232;6.556;2023-10-09T12:46:05;16.92;;;4.82;;
82473;SDS011;72350;53.232;6.556;2023-10-09T12:48:34;11.60;;;4.55;;
82473;SDS011;72350;53.232;6.556;2023-10-09T12:51:02;10.80;;;4.78;;
82473;SDS011;72350;53.232;6.556;2023-10-09T12:53:32;9.98;;;4.93;;
82473;SDS011;72350;53.232;6.556;2023-10-09T12:56:00;12.65;;;6.28;;
82473;SDS011;72350;53.232;6.556;2023-10-09T12:58:30;13.23;;;5.05;;
82473;SDS011;72350;53.232;6.556;2023-10-09T13:00:58;19.42;;;6.18;;
82473;SDS011;72350;53.232;6.556;2023-10-09T13:03:36;14.18;;;4.75;;
82473;SDS011;72350;53.232;6.556;2023-10-09T13:06:05;10.75;;;4.20;;
82473;SDS011;72350;53.232;6.556;2023-10-09T13:08:37;14.50;;;4.60;;
82473;SDS011;72350;53.232;6.556;2023-10-09T13:11:08;15.18;;;4.88;;
82473;SDS011;72350;53.232;6.556;2023-10-09T13:13:41;9.27;;;3.55;;
82473;SDS011;72350;53.232;6.556;2023-10-09T13:16:10;10.82;;;4.05;;
82473;SDS011;72350;53.232;6.556;2023-10-09T13:18:40;12.65;;;3.65;;
82473;SDS011;72350;53.232;6.556;2023-10-09T13:21:22;12.80;;;5.80;;
82473;SDS011;72350;53.232;6.556;2023-10-09T13:23:58;17.23;;;7.97;;
82473;SDS011;72350;53.232;6.556;2023-10-09T13:26:28;15.70;;;4.60;;
82473;SDS011;72350;53.232;6.556;2023-10-09T13:29:02;9.50;;;3.70;;
82473;SDS011;72350;53.232;6.556;2023-10-09T13:31:35;11.60;;;4.43;;
82473;SDS011;72350;53.232;6.556;2023-10-09T13:34:04;10.82;;;4.00;;
82473;SDS011;72350;53.232;6.556;2023-10-09T13:36:36;12.73;;;3.47;;
82473;SDS011;72350;53.232;6.556;2023-10-09T13:39:04;11.80;;;4.75;;
82473;SDS011;72350;53.232;6.556;2023-10-09T13:41:50;8.75;;;3.90;;
82473;SDS011;72350;53.232;6.556;2023-10-09T13:44:26;11.10;;;4.05;;
82473;SDS011;72350;53.232;6.556;2023-10-09T13:46:55;8.35;;;3.80;;
82473;SDS011;72350;53.232;6.556;2023-10-09T13:49:23;12.32;;;3.88;;
82473;SDS011;72350;53.232;6.556;2023-10-09T13:51:57;9.98;;;4.72;;
82473;SDS011;72350;53.232;6.556;2023-10-09T13:54:26;9.65;;;3.80;;
82473;SDS011;72350;53.232;6.556;2023-10-09T13:57:06;11.70;;;3.92;;
82473;SDS011;72350;53.232;6.556;2023-10-09T13:59:35;9.68;;;3.45;;
82473;SDS011;72350;53.232;6.556;2023-10-09T14:02:08;13.32;;;4.20;;
82473;SDS011;72350;53.232;6.556;2023-10-09T14:04:44;10.70;;;3.40;;
82473;SDS011;72350;53.232;6.556;2023-10-09T14:07:12;10.77;;;3.58;;
82473;SDS011;72350;53.232;6.556;2023-10-09T14:09:43;11.65;;;3.83;;
82473;SDS011;72350;53.232;6.556;2023-10-09T14:12:22;15.13;;;4.57;;
82473;SDS011;72350;53.232;6.556;2023-10-09T14:14:53;10.43;;;3.38;;
82473;SDS011;72350;53.232;6.556;2023-10-09T14:17:21;10.40;;;3.00;;
82473;SDS011;72350;53.232;6.556;2023-10-09T14:19:52;14.00;;;3.25;;
82473;SDS011;72350;53.232;6.556;2023-10-09T14:22:22;8.25;;;3.20;;
82473;SDS011;72350;53.232;6.556;2023-10-09T14:24:51;13.73;;;3.22;;
82473;SDS011;72350;53.232;6.556;2023-10-09T14:27:23;10.35;;;2.50;;
82473;SDS011;72350;53.232;6.556;2023-10-09T14:29:54;7.65;;;2.75;;
82473;SDS011;72350;53.232;6.556;2023-10-09T14:32:26;12.68;;;3.40;;
82473;SDS011;72350;53.232;6.556;2023-10-09T14:34:56;6.82;;;2.67;;
82473;SDS011;72350;53.232;6.556;2023-10-09T14:37:28;11.57;;;3.23;;
82473;SDS011;72350;53.232;6.556;2023-10-09T14:39:57;7.90;;;2.20;;
82473;SDS011;72350;53.232;6.556;2023-10-09T14:42:26;11.32;;;2.95;;
82473;SDS011;72350;53.232;6.556;2023-10-09T14:44:56;10.07;;;2.80;;
82473;SDS011;72350;53.232;6.556;2023-10-09T14:47:24;7.75;;;2.60;;
82473;SDS011;72350;53.232;6.556;2023-10-09T14:49:52;9.23;;;2.67;;
82473;SDS011;72350;53.232;6.556;2023-10-09T14:52:23;10.90;;;2.47;;
82473;SDS011;72350;53.232;6.556;2023-10-09T14:54:50;10.77;;;2.67;;
82473;SDS011;72350;53.232;6.556;2023-10-09T14:57:18;12.35;;;2.80;;
82473;SDS011;72350;53.232;6.556;2023-10-09T14:59:46;9.90;;;2.40;;
82473;SDS011;72350;53.232;6.556;2023-10-09T15:02:17;11.98;;;2.53;;
82473;SDS011;72350;53.232;6.556;2023-10-09T15:04:45;6.05;;;2.10;;
82473;SDS011;72350;53.232;6.556;2023-10-09T15:07:13;13.40;;;2.72;;
82473;SDS011;72350;53.232;6.556;2023-10-09T15:10:01;9.68;;;2.00;;
82473;SDS011;72350;53.232;6.556;2023-10-09T15:12:32;21.30;;;2.63;;
82473;SDS011;72350;53.232;6.556;2023-10-09T15:15:05;8.43;;;2.40;;
82473;SDS011;72350;53.232;6.556;2023-10-09T15:17:39;8.80;;;1.98;;
82473;SDS011;72350;53.232;6.556;2023-10-09T15:20:10;15.20;;;3.45;;
82473;SDS011;72350;53.232;6.556;2023-10-09T15:22:41;7.50;;;2.55;;
82473;SDS011;72350;53.232;6.556;2023-10-09T15:25:09;6.75;;;2.33;;
82473;SDS011;72350;53.232;6.556;2023-10-09T15:27:42;9.15;;;2.45;;
82473;SDS011;72350;53.232;6.556;2023-10-09T15:30:10;6.53;;;2.15;;
82473;SDS011;72350;53.232;6.556;2023-10-09T15:32:43;6.05;;;2.53;;